Terminal Aerodrome Forecast
Issued by NWS Missoula, MT

Home | Current Version | Previous Version | Text Only | Print | Product List | Glossary On
Versions: 1 2 3 4 5 6 7 8 9 10 11 12 13
945
FTUS45 KMSO 251120
TAFGPI
TAF
KGPI 251120Z 2512/2612 VRB04KT P6SM FEW090
     FM251900 16010KT P6SM FEW100
     FM260200 VRB04KT P6SM SKC=

USA.gov is the U.S. government's official web portal to all federal, state and local government web resources and services.